createdAt,value
2017-11-20T00:02:05.726Z,38.47
2017-11-20T00:04:33.908Z,21.00
2017-11-20T00:07:01.976Z,27.33
2017-11-20T00:09:30.202Z,28.40
2017-11-20T00:11:58.413Z,19.33
2017-11-20T00:14:26.506Z,24.73
2017-11-20T00:16:54.564Z,26.80
2017-11-20T00:19:22.828Z,25.70
2017-11-20T00:21:52.745Z,23.70
2017-11-20T00:24:20.997Z,25.97
2017-11-20T00:26:49.094Z,17.80
2017-11-20T00:29:17.180Z,24.40
2017-11-20T00:31:45.263Z,18.10
2017-11-20T00:34:13.370Z,18.93
2017-11-20T00:36:42.277Z,26.90
2017-11-20T00:39:10.460Z,21.50
2017-11-20T00:41:38.544Z,24.80
2017-11-20T00:44:06.729Z,20.43
2017-11-20T00:46:34.821Z,35.80
2017-11-20T00:49:03.438Z,21.73
2017-11-20T00:51:33.296Z,17.83
2017-11-20T00:54:02.387Z,26.40
2017-11-20T00:56:30.648Z,30.67
2017-11-20T00:58:58.761Z,28.37
2017-11-20T01:01:26.913Z,25.17
2017-11-20T01:03:54.995Z,28.13
2017-11-20T01:06:24.845Z,19.20
2017-11-20T01:08:52.916Z,24.67
2017-11-20T01:11:22.589Z,24.07
2017-11-20T01:13:50.829Z,25.87
2017-11-20T01:16:18.929Z,27.23
2017-11-20T01:18:47.027Z,33.17
2017-11-20T01:21:15.199Z,22.50
2017-11-20T01:23:43.274Z,31.30
2017-11-20T01:26:11.548Z,34.33
2017-11-20T01:28:39.621Z,23.07
2017-11-20T01:31:07.709Z,32.23
2017-11-20T01:33:36.557Z,27.53
2017-11-20T01:36:04.723Z,22.30
2017-11-20T01:38:32.817Z,30.80
2017-11-20T01:41:00.895Z,21.80
2017-11-20T01:43:28.998Z,20.20
2017-11-20T01:45:57.973Z,26.53
2017-11-20T01:48:26.042Z,16.60
2017-11-20T01:50:54.141Z,16.33
2017-11-20T01:53:23.136Z,31.07
2017-11-20T01:55:51.212Z,24.20
2017-11-20T01:58:19.715Z,30.97
2017-11-20T02:00:47.905Z,28.63
2017-11-20T02:03:15.989Z,31.40
2017-11-20T02:05:44.151Z,21.27
2017-11-20T02:08:12.272Z,26.60
2017-11-20T02:10:41.116Z,25.47
2017-11-20T02:13:09.200Z,19.03
2017-11-20T02:15:37.934Z,26.80
2017-11-20T02:18:06.061Z,28.87
2017-11-20T02:20:34.172Z,23.17
2017-11-20T02:23:03.093Z,22.33
2017-11-20T02:25:31.170Z,24.07
2017-11-20T02:27:59.277Z,28.70
2017-11-20T02:30:27.364Z,25.73
2017-11-20T02:32:56.224Z,25.53
2017-11-20T02:35:24.307Z,20.80
2017-11-20T02:37:52.381Z,26.40
2017-11-20T02:40:20.507Z,18.83
2017-11-20T02:42:48.598Z,28.20
2017-11-20T02:45:16.706Z,20.50
2017-11-20T02:47:44.791Z,18.63
2017-11-20T02:50:13.625Z,23.90
2017-11-20T02:52:42.214Z,23.20
2017-11-20T02:55:10.284Z,20.57
2017-11-20T02:57:38.378Z,18.27
2017-11-20T03:00:06.465Z,18.20
2017-11-20T03:02:34.556Z,16.80
2017-11-20T03:05:03.401Z,13.13
2017-11-20T03:07:31.529Z,17.23
2017-11-20T03:10:00.357Z,20.90
2017-11-20T03:12:28.448Z,21.83
2017-11-20T03:14:56.571Z,30.43
2017-11-20T03:17:24.636Z,17.33
2017-11-20T03:19:52.735Z,21.33
2017-11-20T03:22:20.805Z,17.00
2017-11-20T03:24:48.908Z,19.87
2017-11-20T03:27:16.983Z,15.93
2017-11-20T03:29:45.296Z,12.40
2017-11-20T03:32:13.413Z,20.00
2017-11-20T03:34:41.505Z,14.47
2017-11-20T03:37:09.590Z,19.27
2017-11-20T03:39:37.673Z,17.07
2017-11-20T03:42:05.833Z,14.37
2017-11-20T03:44:33.936Z,14.97
2017-11-20T03:47:02.864Z,15.80
2017-11-20T03:49:31.110Z,12.70
2017-11-20T03:51:59.253Z,14.80
2017-11-20T03:54:27.466Z,20.23
2017-11-20T03:56:56.513Z,19.07
2017-11-20T03:59:24.645Z,19.80
2017-11-20T04:01:52.720Z,17.07
2017-11-20T04:04:20.860Z,26.10
2017-11-20T04:06:49.598Z,18.93
2017-11-20T04:09:17.741Z,14.10
2017-11-20T04:11:45.817Z,14.00
2017-11-20T04:14:14.808Z,19.90
2017-11-20T04:16:43.030Z,17.73
2017-11-20T04:19:11.108Z,25.57
2017-11-20T04:21:39.184Z,27.10
2017-11-20T04:24:08.181Z,21.63
2017-11-20T04:26:36.271Z,17.77
2017-11-20T04:29:05.145Z,16.87
2017-11-20T04:31:34.045Z,14.03
2017-11-20T04:34:02.169Z,20.00
2017-11-20T04:36:31.104Z,18.27
2017-11-20T04:38:59.325Z,17.17
2017-11-20T04:41:27.400Z,20.10
2017-11-20T04:43:55.469Z,22.13
2017-11-20T04:46:23.582Z,15.73
2017-11-20T04:48:51.650Z,17.40
2017-11-20T04:51:20.541Z,28.30
2017-11-20T04:53:49.700Z,19.43
2017-11-20T04:56:17.799Z,25.33
2017-11-20T04:58:45.873Z,24.47
2017-11-20T05:01:14.192Z,19.70
2017-11-20T05:03:42.773Z,26.83
2017-11-20T05:06:11.701Z,35.33
2017-11-20T05:08:39.875Z,19.87
2017-11-20T05:11:07.972Z,28.80
2017-11-20T05:13:36.124Z,21.77
2017-11-20T05:16:04.925Z,27.93
2017-11-20T05:18:33.747Z,25.73
2017-11-20T05:21:02.007Z,27.07
2017-11-20T05:23:30.092Z,26.57
2017-11-20T05:25:58.364Z,25.07
2017-11-20T05:28:27.095Z,18.63
2017-11-20T05:30:55.238Z,27.67
2017-11-20T05:33:24.121Z,21.90
2017-11-20T05:35:53.301Z,28.37
2017-11-20T05:38:21.599Z,25.70
2017-11-20T05:40:50.242Z,29.50
2017-11-20T05:43:18.349Z,31.63
2017-11-20T05:45:46.462Z,25.60
2017-11-20T05:48:14.560Z,26.63
2017-11-20T05:50:42.653Z,28.93
2017-11-20T05:53:10.746Z,23.70
2017-11-20T05:55:38.845Z,29.30
2017-11-20T05:58:06.949Z,31.67
2017-11-20T06:00:35.042Z,29.70
2017-11-20T06:03:03.193Z,27.13
2017-11-20T06:05:31.300Z,27.20
2017-11-20T06:07:59.478Z,20.80
2017-11-20T06:10:27.570Z,24.73
2017-11-20T06:12:56.434Z,31.23
2017-11-20T06:15:24.535Z,26.43
2017-11-20T06:17:53.525Z,36.60
2017-11-20T06:20:22.385Z,28.03
2017-11-20T06:22:50.502Z,28.53
2017-11-20T06:25:18.594Z,31.53
2017-11-20T06:27:46.665Z,26.23
2017-11-20T06:30:14.848Z,33.70
2017-11-20T06:32:42.953Z,30.20
2017-11-20T06:35:11.081Z,30.07
2017-11-20T06:37:39.297Z,25.00
2017-11-20T06:40:07.406Z,33.43
2017-11-20T06:42:35.562Z,28.03
2017-11-20T06:45:03.733Z,35.07
2017-11-20T06:47:31.813Z,30.57
2017-11-20T06:49:59.997Z,31.10
2017-11-20T06:52:28.079Z,30.20
2017-11-20T06:54:56.181Z,30.53
2017-11-20T06:57:24.271Z,26.73
2017-11-20T06:59:52.368Z,38.73
2017-11-20T07:02:20.537Z,22.43
2017-11-20T07:04:48.617Z,24.77
2017-11-20T07:07:16.721Z,28.13
2017-11-20T07:09:44.804Z,35.33
2017-11-20T07:12:12.917Z,23.73
2017-11-20T07:14:41.010Z,28.17
2017-11-20T07:17:09.133Z,28.03
2017-11-20T07:19:37.233Z,26.23
2017-11-20T07:22:05.371Z,32.87
2017-11-20T07:24:33.462Z,40.40
2017-11-20T07:27:02.503Z,32.07
2017-11-20T07:32:39.588Z,28.63
2017-11-20T07:35:16.534Z,29.03
2017-11-20T07:37:56.483Z,27.23
2017-11-20T07:40:24.614Z,17.20
2017-11-20T07:42:52.695Z,22.83
2017-11-20T07:45:21.557Z,25.43
2017-11-20T07:47:49.647Z,23.27
2017-11-20T07:50:18.517Z,24.93
2017-11-20T07:52:46.628Z,26.60
2017-11-20T07:55:14.736Z,24.60
2017-11-20T07:57:42.903Z,25.27
2017-11-20T08:00:10.979Z,19.53
2017-11-20T08:02:39.084Z,17.27
2017-11-20T08:05:07.172Z,18.33
2017-11-20T08:07:35.285Z,18.57
2017-11-20T08:10:03.369Z,21.43
2017-11-20T08:12:31.560Z,21.83
2017-11-20T08:14:59.704Z,16.57
2017-11-20T08:17:27.855Z,21.03
2017-11-20T08:19:55.957Z,10.43
2017-11-20T08:22:24.033Z,13.00
2017-11-20T08:24:52.132Z,15.93
2017-11-20T08:27:20.200Z,12.63
2017-11-20T08:29:48.301Z,8.80
2017-11-20T08:32:17.145Z,9.10
2017-11-20T08:34:45.221Z,11.53
2017-11-20T08:37:13.324Z,8.13
2017-11-20T08:39:42.226Z,9.10
2017-11-20T08:42:11.092Z,16.40
2017-11-20T08:44:39.225Z,7.70
2017-11-20T08:47:08.109Z,12.10
2017-11-20T08:49:36.184Z,13.20
2017-11-20T08:52:04.296Z,12.13
2017-11-20T08:54:32.376Z,12.63
2017-11-20T08:57:00.444Z,14.43
2017-11-20T08:59:28.545Z,13.37
2017-11-20T09:01:57.389Z,11.43
2017-11-20T09:04:25.487Z,13.57
2017-11-20T09:06:53.592Z,14.17
2017-11-20T09:09:21.684Z,13.50
2017-11-20T09:11:49.764Z,17.50
2017-11-20T09:14:17.889Z,11.83
2017-11-20T09:16:46.766Z,13.37
2017-11-20T09:19:14.893Z,12.63
2017-11-20T09:21:42.997Z,14.93
2017-11-20T09:24:11.077Z,20.03
2017-11-20T09:29:38.634Z,15.90
2017-11-20T09:32:06.755Z,13.90
2017-11-20T09:34:42.377Z,17.80
2017-11-20T09:37:10.489Z,14.33
2017-11-20T09:39:38.569Z,20.10
2017-11-20T09:42:06.674Z,17.57
2017-11-20T09:44:34.773Z,17.20
2017-11-20T09:47:03.020Z,18.83
2017-11-20T09:49:31.110Z,21.40
2017-11-20T09:51:59.201Z,17.93
2017-11-20T09:54:27.372Z,11.00
2017-11-20T09:56:55.479Z,11.03
2017-11-20T09:59:23.578Z,18.70
2017-11-20T10:05:04.461Z,11.30
2017-11-20T10:07:32.598Z,14.37
2017-11-20T10:10:01.440Z,11.87
2017-11-20T10:12:29.540Z,21.47
2017-11-20T10:14:57.620Z,19.83
2017-11-20T10:17:26.511Z,9.37
2017-11-20T10:19:55.350Z,8.43
2017-11-20T10:22:23.426Z,9.60
2017-11-20T10:24:51.545Z,8.57
2017-11-20T10:27:20.402Z,14.53
2017-11-20T10:29:48.496Z,7.00
2017-11-20T10:32:16.578Z,6.73
2017-11-20T10:34:44.713Z,11.30
2017-11-20T10:37:12.786Z,8.83
2017-11-20T10:39:40.880Z,8.30
2017-11-20T10:42:08.952Z,5.30
2017-11-20T10:44:37.037Z,7.00
2017-11-20T10:47:05.909Z,9.03
2017-11-20T10:49:34.021Z,8.30
2017-11-20T10:52:03.060Z,11.13
2017-11-20T10:54:31.136Z,11.87
2017-11-20T10:56:59.268Z,12.40
2017-11-20T10:59:27.357Z,11.67
2017-11-20T11:01:55.432Z,9.40
2017-11-20T11:04:23.598Z,12.43
2017-11-20T11:06:51.693Z,16.50
2017-11-20T11:09:19.788Z,8.60
2017-11-20T11:11:47.885Z,12.40
2017-11-20T11:14:16.717Z,10.40
2017-11-20T11:16:44.830Z,12.83
2017-11-20T11:19:12.936Z,10.00
2017-11-20T11:21:41.013Z,10.63
2017-11-20T11:24:09.230Z,7.13
2017-11-20T11:26:37.319Z,6.53
2017-11-20T11:29:05.420Z,14.03
2017-11-20T11:31:33.519Z,12.70
2017-11-20T11:34:01.737Z,13.30
2017-11-20T11:36:29.856Z,11.77
2017-11-20T11:38:57.964Z,9.60
2017-11-20T11:41:26.102Z,14.37
2017-11-20T11:43:54.170Z,11.13
2017-11-20T11:46:22.293Z,8.90
2017-11-20T11:48:50.364Z,13.63
2017-11-20T11:51:18.431Z,10.47
2017-11-20T11:53:46.593Z,9.30
2017-11-20T11:56:14.755Z,14.40
2017-11-20T11:58:42.852Z,7.93
2017-11-20T12:01:10.956Z,18.20
2017-11-20T12:03:39.818Z,19.17
2017-11-20T12:06:07.905Z,15.23
2017-11-20T12:08:35.997Z,16.80
2017-11-20T12:11:04.084Z,13.13
2017-11-20T12:13:32.171Z,21.30
2017-11-20T12:16:00.265Z,22.77
2017-11-20T12:18:28.344Z,19.70
2017-11-20T12:20:56.462Z,18.23
2017-11-20T12:23:25.313Z,16.40
2017-11-20T12:25:53.406Z,17.40
2017-11-20T12:28:22.272Z,16.27
2017-11-20T12:30:50.357Z,15.07
2017-11-20T12:33:18.451Z,18.83
2017-11-20T12:35:46.521Z,19.00
2017-11-20T12:38:15.381Z,18.80
2017-11-20T12:40:43.520Z,21.73
2017-11-20T12:43:11.598Z,16.93
2017-11-20T12:45:39.697Z,13.50
2017-11-20T12:48:07.788Z,13.67
2017-11-20T12:50:35.910Z,21.27
2017-11-20T12:53:04.001Z,18.67
2017-11-20T12:55:32.097Z,19.27
2017-11-20T12:58:00.176Z,20.57
2017-11-20T13:00:28.310Z,18.43
2017-11-20T13:02:56.546Z,21.10
2017-11-20T13:05:25.381Z,17.80
2017-11-20T13:07:53.478Z,19.03
2017-11-20T13:10:21.560Z,22.00
2017-11-20T13:12:49.661Z,20.20
2017-11-20T13:15:17.809Z,20.60
2017-11-20T13:17:45.949Z,23.53
2017-11-20T13:20:14.030Z,20.43
2017-11-20T13:22:42.136Z,20.83
2017-11-20T13:25:11.140Z,23.73
2017-11-20T13:27:39.321Z,17.80
2017-11-20T13:30:07.433Z,26.17
2017-11-20T13:32:35.532Z,32.57
2017-11-20T13:35:03.660Z,27.97
2017-11-20T13:37:31.749Z,26.63
2017-11-20T13:39:59.914Z,27.80
2017-11-20T13:42:28.296Z,22.33
2017-11-20T13:44:56.396Z,28.93
2017-11-20T13:47:24.485Z,23.50
2017-11-20T13:49:53.393Z,29.60
2017-11-20T13:52:21.484Z,25.20
2017-11-20T13:54:49.573Z,22.67
2017-11-20T13:57:17.661Z,28.17
2017-11-20T13:59:45.805Z,26.57
2017-11-20T14:02:13.926Z,29.00
2017-11-20T14:04:42.012Z,22.47
2017-11-20T14:07:10.133Z,29.63
2017-11-20T14:09:38.217Z,29.13
2017-11-20T14:12:06.340Z,23.50
2017-11-20T14:14:34.493Z,26.00
2017-11-20T14:17:02.574Z,23.70
2017-11-20T14:19:30.700Z,22.33
2017-11-20T14:21:58.841Z,22.83
2017-11-20T14:24:27.774Z,22.17
2017-11-20T14:26:55.861Z,28.30
2017-11-20T14:29:23.961Z,27.20
2017-11-20T14:31:52.041Z,23.40
2017-11-20T14:34:20.152Z,20.90
2017-11-20T14:36:48.277Z,21.47
2017-11-20T14:39:16.361Z,26.90
2017-11-20T14:41:45.236Z,21.50
2017-11-20T14:44:14.080Z,23.60
2017-11-20T14:46:43.292Z,25.53
2017-11-20T14:49:11.388Z,24.60
2017-11-20T14:51:46.826Z,27.17
2017-11-20T14:54:31.409Z,21.13
2017-11-20T14:57:00.283Z,21.40
2017-11-20T14:59:28.383Z,28.03
2017-11-20T15:01:57.999Z,21.33
2017-11-20T15:04:26.108Z,19.37
2017-11-20T15:06:54.244Z,22.00
2017-11-20T15:09:22.374Z,24.43
2017-11-20T15:11:51.396Z,19.10
2017-11-20T15:14:19.541Z,22.90
2017-11-20T15:16:47.645Z,18.70
2017-11-20T15:19:16.568Z,21.67
2017-11-20T15:21:44.737Z,23.73
2017-11-20T15:24:12.872Z,21.80
2017-11-20T15:26:41.854Z,20.57
2017-11-20T15:29:09.993Z,21.90
2017-11-20T15:31:38.148Z,30.50
2017-11-20T15:34:06.278Z,18.20
2017-11-20T15:36:34.412Z,20.70
2017-11-20T15:39:02.525Z,23.00
2017-11-20T15:41:30.748Z,19.87
2017-11-20T15:43:58.820Z,21.67
2017-11-20T15:46:26.937Z,22.80
2017-11-20T15:48:55.017Z,21.33
2017-11-20T15:51:23.196Z,28.10
2017-11-20T15:53:51.291Z,22.37
2017-11-20T15:56:19.371Z,22.40
2017-11-20T15:58:47.460Z,30.50
2017-11-20T16:01:15.781Z,24.70
2017-11-20T16:03:43.854Z,24.20
2017-11-20T16:06:11.974Z,23.93
2017-11-20T16:08:40.138Z,24.00
2017-11-20T16:11:08.422Z,29.57
2017-11-20T16:13:36.568Z,23.33
2017-11-20T16:16:05.451Z,24.20
2017-11-20T16:18:37.549Z,23.13
2017-11-20T16:21:05.625Z,24.00
2017-11-20T16:23:33.749Z,22.03
2017-11-20T16:26:01.821Z,24.23
2017-11-20T16:28:29.895Z,22.47
2017-11-20T16:30:58.044Z,21.17
2017-11-20T16:33:26.137Z,23.27
2017-11-20T16:35:54.211Z,25.20
2017-11-20T16:38:22.317Z,23.73
2017-11-20T16:40:50.425Z,21.73
2017-11-20T16:43:18.616Z,23.63
2017-11-20T16:45:46.722Z,20.83
2017-11-20T16:48:15.593Z,25.17
2017-11-20T16:50:43.716Z,21.90
2017-11-20T16:53:11.856Z,27.70
2017-11-20T16:55:40.037Z,25.40
2017-11-20T16:58:26.618Z,25.53
2017-11-20T17:00:54.814Z,26.20
2017-11-20T17:03:32.600Z,24.70
2017-11-20T17:06:01.681Z,24.00
2017-11-20T17:08:29.774Z,25.30
2017-11-20T17:10:58.627Z,26.03
2017-11-20T17:13:27.019Z,23.50
2017-11-20T17:15:55.227Z,27.87
2017-11-20T17:18:24.085Z,24.67
2017-11-20T17:20:52.728Z,25.47
2017-11-20T17:23:20.828Z,27.73
2017-11-20T17:25:49.009Z,28.63
2017-11-20T17:28:17.101Z,27.60
2017-11-20T17:30:45.186Z,27.53
2017-11-20T17:33:13.266Z,28.87
2017-11-20T17:35:42.126Z,27.60
2017-11-20T17:38:10.271Z,29.07
2017-11-20T17:40:38.378Z,32.10
2017-11-20T17:43:06.467Z,38.17
2017-11-20T17:45:34.571Z,44.03
2017-11-20T17:48:02.654Z,53.70
2017-11-20T17:50:30.842Z,57.73
2017-11-20T17:52:58.940Z,58.87
2017-11-20T17:55:27.052Z,60.27
2017-11-20T17:57:55.157Z,58.47
2017-11-20T18:00:23.245Z,61.03
2017-11-20T18:02:51.343Z,69.77
2017-11-20T18:05:19.498Z,86.00
2017-11-20T18:07:47.626Z,79.40
2017-11-20T18:10:15.726Z,91.60
2017-11-20T18:12:43.820Z,87.03
2017-11-20T18:15:11.897Z,98.33
2017-11-20T18:17:40.005Z,100.67
2017-11-20T18:20:08.127Z,104.33
2017-11-20T18:22:36.200Z,91.40
2017-11-20T18:25:04.314Z,91.50
2017-11-20T18:27:32.525Z,93.43
2017-11-20T18:30:00.597Z,96.50
2017-11-20T18:32:28.764Z,104.20
2017-11-20T18:34:56.864Z,91.67
2017-11-20T18:37:24.961Z,87.07
2017-11-20T18:39:53.049Z,106.70
2017-11-20T18:42:21.185Z,91.53
2017-11-20T18:44:49.339Z,105.33
2017-11-20T18:47:17.761Z,97.43
2017-11-20T18:49:45.858Z,90.13
2017-11-20T18:52:14.721Z,95.83
2017-11-20T18:54:42.877Z,97.13
2017-11-20T18:57:11.042Z,91.73
2017-11-20T18:59:39.169Z,99.83
2017-11-20T19:02:25.855Z,108.07
2017-11-20T19:05:01.141Z,114.83
2017-11-20T19:07:47.034Z,107.80
2017-11-20T19:10:15.173Z,119.00
2017-11-20T19:12:43.252Z,139.80
2017-11-20T19:15:11.336Z,137.27
2017-11-20T19:17:39.461Z,109.00
2017-11-20T19:20:07.548Z,123.17
2017-11-20T19:22:35.712Z,122.20
2017-11-20T19:25:03.828Z,130.83
2017-11-20T19:27:32.030Z,114.43
2017-11-20T19:30:00.106Z,107.97
2017-11-20T19:32:28.221Z,118.43
2017-11-20T19:34:56.589Z,103.33
2017-11-20T19:37:24.681Z,115.07
2017-11-20T19:39:53.661Z,108.07
2017-11-20T19:42:21.844Z,105.73
2017-11-20T19:44:50.792Z,123.90
2017-11-20T19:47:18.908Z,100.47
2017-11-20T19:49:47.820Z,111.07
2017-11-20T19:52:15.922Z,88.50
2017-11-20T19:54:44.021Z,91.87
2017-11-20T19:57:12.471Z,92.30
2017-11-20T19:59:40.636Z,82.27
2017-11-20T20:02:08.741Z,83.97
2017-11-20T20:04:36.949Z,74.30
2017-11-20T20:07:05.793Z,75.50
2017-11-20T20:09:33.965Z,85.73
2017-11-20T20:12:02.568Z,73.10
2017-11-20T20:14:31.044Z,71.60
2017-11-20T20:17:10.921Z,89.93
2017-11-20T20:19:39.826Z,80.50
2017-11-20T20:22:08.010Z,64.17
2017-11-20T20:24:36.110Z,65.80
2017-11-20T20:27:04.235Z,64.40
2017-11-20T20:29:33.276Z,61.67
2017-11-20T20:32:01.435Z,64.10
2017-11-20T20:34:29.564Z,52.77
2017-11-20T20:36:57.770Z,54.93
2017-11-20T20:39:25.933Z,53.30
2017-11-20T20:41:54.864Z,48.40
2017-11-20T20:44:23.016Z,46.20
2017-11-20T20:46:51.102Z,50.83
2017-11-20T20:49:19.216Z,48.40
2017-11-20T20:51:47.305Z,44.53
2017-11-20T20:54:16.213Z,39.90
2017-11-20T20:56:44.753Z,46.27
2017-11-20T20:59:12.965Z,44.77
2017-11-20T21:01:41.230Z,43.27
2017-11-20T21:04:09.330Z,40.13
2017-11-20T21:06:43.153Z,44.00
2017-11-20T21:09:11.226Z,47.23
2017-11-20T21:11:45.163Z,44.23
2017-11-20T21:14:13.710Z,46.47
2017-11-20T21:16:41.815Z,51.20
2017-11-20T21:19:09.905Z,47.30
2017-11-20T21:21:37.998Z,47.67
2017-11-20T21:24:06.386Z,52.03
2017-11-20T21:26:34.478Z,52.63
2017-11-20T21:29:02.613Z,57.17
2017-11-20T21:31:31.482Z,63.87
2017-11-20T21:33:59.582Z,59.70
2017-11-20T21:36:28.553Z,70.90
2017-11-20T21:38:56.750Z,69.23
2017-11-20T21:41:24.845Z,66.17
2017-11-20T21:43:53.145Z,70.27
2017-11-20T21:46:21.233Z,75.60
2017-11-20T21:48:49.333Z,73.30
2017-11-20T21:51:17.551Z,80.23
2017-11-20T21:53:45.653Z,81.50
2017-11-20T21:56:13.794Z,73.23
2017-11-20T21:58:41.883Z,65.37
2017-11-20T22:01:09.965Z,74.07
2017-11-20T22:03:38.197Z,84.00
2017-11-20T22:06:06.293Z,80.00
2017-11-20T22:08:34.377Z,88.57
2017-11-20T22:11:02.482Z,87.13
2017-11-20T22:13:30.569Z,87.80
2017-11-20T22:15:58.812Z,95.87
2017-11-20T22:18:26.906Z,97.30
2017-11-20T22:20:55.012Z,85.07
2017-11-20T22:23:23.336Z,100.90
2017-11-20T22:25:51.442Z,98.53
2017-11-20T22:28:21.281Z,96.53
2017-11-20T22:30:49.365Z,103.50
2017-11-20T22:33:17.485Z,105.90
2017-11-20T22:35:45.645Z,100.73
2017-11-20T22:38:13.740Z,105.87
2017-11-20T22:40:41.842Z,95.77
2017-11-20T22:43:09.948Z,95.90
2017-11-20T22:45:38.024Z,95.87
2017-11-20T22:48:06.217Z,100.67
2017-11-20T22:50:34.316Z,93.87
2017-11-20T22:53:02.420Z,93.87
2017-11-20T22:55:30.499Z,85.97
2017-11-20T22:57:58.665Z,92.37
2017-11-20T23:00:26.749Z,98.07
2017-11-20T23:02:55.689Z,100.43
2017-11-20T23:05:24.008Z,91.97
2017-11-20T23:07:52.099Z,86.87
2017-11-20T23:10:20.192Z,111.77
2017-11-20T23:12:48.269Z,91.33
2017-11-20T23:15:16.356Z,85.63
2017-11-20T23:17:44.477Z,91.83
2017-11-20T23:20:12.557Z,91.73
2017-11-20T23:22:40.642Z,85.20
2017-11-20T23:25:08.880Z,79.70
2017-11-20T23:27:37.000Z,79.57
2017-11-20T23:30:05.113Z,85.50
2017-11-20T23:32:33.234Z,82.20
2017-11-20T23:35:01.342Z,86.50
2017-11-20T23:37:29.437Z,84.57
2017-11-20T23:39:57.517Z,82.27
2017-11-20T23:42:25.621Z,85.17
2017-11-20T23:44:53.719Z,85.17
2017-11-20T23:47:21.796Z,85.73
2017-11-20T23:49:50.661Z,87.93
2017-11-20T23:52:18.742Z,79.73
2017-11-20T23:54:46.838Z,79.77
2017-11-20T23:57:15.698Z,75.33
2017-11-20T23:59:44.026Z,76.53
